Dymchurch, United Kingdom
Current Conditions -  °F | °C
As of 5:20 PM on Saturday 20 Dec 2014 (Local Time) from EGMD Reporting Station
Few Clouds Few Clouds  
Wind Chill:   Ceiling: Unl
Heat Index:   Visibility: 6mi
Dew Point:   Wind: 15mph
Humidity: 71%   Direction: 270°W
Pressure: 30.39"   Gusts: NA
Location:  51.03°N, 0.99°E
Report Text: EGMD 201720Z 27013KT 9999 FEW041 09/04 Q1029
Loading
Personal Weather Stations






























Interactive Weather Map New forecast layout! Learn more

10-Day Weather Forecast

Advertisements
Track Severe Weather on mobile